Nashville, NC

3:12 PM EDT on August 29, 2015 (GMT -0400)
Nashville - Birchwood | | Change Station
CLOSE
Current Station
Personal Weather Station
Location: Nashville, NC
Elevation: 223 ft
Nearby Weather Stations

Elev 223 ft 35.96 °N, 77.94 °W | Updated 18 seconds ago

Partly Cloudy
Partly Cloudy
90.3 °F
Feels Like 91 °F
N
4.0
Wind Variable Wind from NNW
Gusts 8.0 mph

Today
High -- | Low -- °F
--% Chance of Precip.
Yesterday
High -- | Low -- °F
Precip. -- in
6:41 AM 7:43 PM
Full, 100% visible
Pressure 30.17 in
Visibility 10.0 miles
Clouds Clear
Heat Index 91 °F
Dew Point 62 °F
Humidity 39%
Rainfall 0.00 in
Snow Depth Not available.
UV 8 out of 12
Pollen 7.80 out of 12
Air Quality Not available.
Flu Activity Not available.
METAR KRWI 291853Z AUTO 09007KT 10SM CLR 30/11 A3017 RMK AO2 SLP216 T03000111
Pressure 30.17 in
Visibility 10.0 miles
Clouds Clear
Heat Index 91 °F
Dew Point 62 °F
Humidity 39%
Rainfall 0.00 in
Snow Depth Not available.
UV 8 out of 12
Pollen 7.80 out of 12
Air Quality Not available.
Flu Activity Not available.
METAR KRWI 291853Z AUTO 09007KT 10SM CLR 30/11 A3017 RMK AO2 SLP216 T03000111

10-Day Weather Forecast

×

Almanac

Astronomy

Aug. 29, 2015 Rise Set
Actual Time
Civil Twilight
Nautical Twilight
Astronomical Twilight
Moon
Length of Visible Light
Length of Day
Tomorrow will be .
, % of the Moon is Illuminated

Today's Extremes

State Highs State Lows

Community

WunderPhotos

Upload Photos

1,850,778 photos uploaded!

WunderBlogs® & News

Nearby

Air Quality

  Air Quality AQ Index Pollutant
Not available.

Snow Depth

Station Depth Elevation

Earthquake Activity

City Distance Mag. Time & Date
Minimum magnitude displayed is 2.5.

Coastal Water Temperatures

Place Temperature

Stations

Nearby Weather Stations

Station Location Temp. Windchill Dew Point Humidity Wind Precip. Elev Updated Type